sensor_id;sensor_type;location;lat;lon;timestamp;P1;durP1;ratioP1;P2;durP2;ratioP2
9888;SDS011;4983;42.112;24.738;2023-05-20T00:01:42;4.20;;;3.33;;
9888;SDS011;4983;42.112;24.738;2023-05-20T00:04:09;4.07;;;3.53;;
9888;SDS011;4983;42.112;24.738;2023-05-20T00:06:37;5.33;;;3.70;;
9888;SDS011;4983;42.112;24.738;2023-05-20T00:09:04;5.47;;;3.43;;
9888;SDS011;4983;42.112;24.738;2023-05-20T00:11:30;5.40;;;3.60;;
9888;SDS011;4983;42.112;24.738;2023-05-20T00:13:58;4.80;;;3.80;;
9888;SDS011;4983;42.112;24.738;2023-05-20T00:16:25;6.87;;;3.83;;
9888;SDS011;4983;42.112;24.738;2023-05-20T00:18:52;4.30;;;3.50;;
9888;SDS011;4983;42.112;24.738;2023-05-20T00:21:18;4.67;;;3.57;;
9888;SDS011;4983;42.112;24.738;2023-05-20T00:23:46;4.00;;;3.03;;
9888;SDS011;4983;42.112;24.738;2023-05-20T00:26:13;5.50;;;3.90;;
9888;SDS011;4983;42.112;24.738;2023-05-20T00:28:40;6.27;;;3.60;;
9888;SDS011;4983;42.112;24.738;2023-05-20T00:31:06;6.20;;;4.53;;
9888;SDS011;4983;42.112;24.738;2023-05-20T00:33:33;5.20;;;3.70;;
9888;SDS011;4983;42.112;24.738;2023-05-20T00:36:01;4.83;;;3.30;;
9888;SDS011;4983;42.112;24.738;2023-05-20T00:38:28;5.67;;;3.53;;
9888;SDS011;4983;42.112;24.738;2023-05-20T00:40:56;4.10;;;3.53;;
9888;SDS011;4983;42.112;24.738;2023-05-20T00:43:22;4.27;;;3.63;;
9888;SDS011;4983;42.112;24.738;2023-05-20T00:45:49;4.43;;;3.30;;
9888;SDS011;4983;42.112;24.738;2023-05-20T00:48:18;3.93;;;3.30;;
9888;SDS011;4983;42.112;24.738;2023-05-20T00:50:47;5.90;;;3.67;;
9888;SDS011;4983;42.112;24.738;2023-05-20T00:53:14;4.10;;;3.40;;
9888;SDS011;4983;42.112;24.738;2023-05-20T00:55:42;4.53;;;3.63;;
9888;SDS011;4983;42.112;24.738;2023-05-20T00:58:11;4.60;;;3.60;;
9888;SDS011;4983;42.112;24.738;2023-05-20T01:00:37;4.10;;;3.23;;
9888;SDS011;4983;42.112;24.738;2023-05-20T01:03:04;5.13;;;3.47;;
9888;SDS011;4983;42.112;24.738;2023-05-20T01:05:31;4.57;;;3.13;;
9888;SDS011;4983;42.112;24.738;2023-05-20T01:07:59;7.83;;;3.80;;
9888;SDS011;4983;42.112;24.738;2023-05-20T01:10:27;4.20;;;3.43;;
9888;SDS011;4983;42.112;24.738;2023-05-20T01:12:55;4.73;;;3.70;;
9888;SDS011;4983;42.112;24.738;2023-05-20T01:15:24;4.33;;;3.87;;
9888;SDS011;4983;42.112;24.738;2023-05-20T01:17:57;8.17;;;4.17;;
9888;SDS011;4983;42.112;24.738;2023-05-20T01:20:25;5.20;;;4.33;;
9888;SDS011;4983;42.112;24.738;2023-05-20T01:22:55;6.77;;;4.53;;
9888;SDS011;4983;42.112;24.738;2023-05-20T01:25:22;7.57;;;4.70;;
9888;SDS011;4983;42.112;24.738;2023-05-20T01:27:49;6.10;;;4.67;;
9888;SDS011;4983;42.112;24.738;2023-05-20T01:30:16;6.53;;;4.90;;
9888;SDS011;4983;42.112;24.738;2023-05-20T01:32:46;6.43;;;5.00;;
9888;SDS011;4983;42.112;24.738;2023-05-20T01:35:14;7.03;;;5.17;;
9888;SDS011;4983;42.112;24.738;2023-05-20T01:37:41;9.07;;;5.07;;
9888;SDS011;4983;42.112;24.738;2023-05-20T01:40:11;10.10;;;5.10;;
9888;SDS011;4983;42.112;24.738;2023-05-20T01:42:39;6.37;;;4.67;;
9888;SDS011;4983;42.112;24.738;2023-05-20T01:45:07;6.20;;;4.53;;
9888;SDS011;4983;42.112;24.738;2023-05-20T01:47:34;7.87;;;4.70;;
9888;SDS011;4983;42.112;24.738;2023-05-20T01:50:00;6.83;;;4.93;;
9888;SDS011;4983;42.112;24.738;2023-05-20T01:52:27;7.20;;;5.10;;
9888;SDS011;4983;42.112;24.738;2023-05-20T01:54:54;5.87;;;5.03;;
9888;SDS011;4983;42.112;24.738;2023-05-20T01:57:22;7.17;;;4.47;;
9888;SDS011;4983;42.112;24.738;2023-05-20T01:59:49;6.17;;;4.60;;
9888;SDS011;4983;42.112;24.738;2023-05-20T02:02:17;8.57;;;5.17;;
9888;SDS011;4983;42.112;24.738;2023-05-20T02:04:44;5.93;;;4.83;;
9888;SDS011;4983;42.112;24.738;2023-05-20T02:07:12;6.53;;;4.63;;
9888;SDS011;4983;42.112;24.738;2023-05-20T02:09:39;7.27;;;4.60;;
9888;SDS011;4983;42.112;24.738;2023-05-20T02:12:06;5.93;;;4.23;;
9888;SDS011;4983;42.112;24.738;2023-05-20T02:14:34;6.07;;;4.57;;
9888;SDS011;4983;42.112;24.738;2023-05-20T02:17:01;6.13;;;4.73;;
9888;SDS011;4983;42.112;24.738;2023-05-20T02:19:28;6.17;;;4.57;;
9888;SDS011;4983;42.112;24.738;2023-05-20T02:21:55;7.33;;;4.53;;
9888;SDS011;4983;42.112;24.738;2023-05-20T02:24:21;6.63;;;4.93;;
9888;SDS011;4983;42.112;24.738;2023-05-20T02:26:48;8.63;;;4.50;;
9888;SDS011;4983;42.112;24.738;2023-05-20T02:29:15;6.00;;;4.27;;
9888;SDS011;4983;42.112;24.738;2023-05-20T02:31:43;6.83;;;4.50;;
9888;SDS011;4983;42.112;24.738;2023-05-20T02:34:10;6.00;;;4.27;;
9888;SDS011;4983;42.112;24.738;2023-05-20T02:36:37;6.37;;;4.70;;
9888;SDS011;4983;42.112;24.738;2023-05-20T02:39:03;7.10;;;4.43;;
9888;SDS011;4983;42.112;24.738;2023-05-20T02:41:30;5.60;;;4.93;;
9888;SDS011;4983;42.112;24.738;2023-05-20T02:43:56;6.90;;;4.87;;
9888;SDS011;4983;42.112;24.738;2023-05-20T02:46:23;5.87;;;4.37;;
9888;SDS011;4983;42.112;24.738;2023-05-20T02:48:51;5.83;;;4.27;;
9888;SDS011;4983;42.112;24.738;2023-05-20T02:51:18;5.03;;;3.93;;
9888;SDS011;4983;42.112;24.738;2023-05-20T02:53:45;8.70;;;4.57;;
9888;SDS011;4983;42.112;24.738;2023-05-20T02:56:12;6.37;;;4.37;;
9888;SDS011;4983;42.112;24.738;2023-05-20T02:58:38;5.53;;;4.23;;
9888;SDS011;4983;42.112;24.738;2023-05-20T03:01:05;5.13;;;4.10;;
9888;SDS011;4983;42.112;24.738;2023-05-20T03:03:32;7.10;;;3.90;;
9888;SDS011;4983;42.112;24.738;2023-05-20T03:06:00;7.20;;;4.13;;
9888;SDS011;4983;42.112;24.738;2023-05-20T03:08:27;5.50;;;3.93;;
9888;SDS011;4983;42.112;24.738;2023-05-20T03:10:54;5.53;;;3.60;;
9888;SDS011;4983;42.112;24.738;2023-05-20T03:13:20;4.13;;;3.50;;
9888;SDS011;4983;42.112;24.738;2023-05-20T03:15:47;6.27;;;3.70;;
9888;SDS011;4983;42.112;24.738;2023-05-20T03:18:14;7.03;;;4.00;;
9888;SDS011;4983;42.112;24.738;2023-05-20T03:20:40;5.70;;;4.17;;
9888;SDS011;4983;42.112;24.738;2023-05-20T03:23:08;6.47;;;3.90;;
9888;SDS011;4983;42.112;24.738;2023-05-20T03:25:35;4.27;;;3.50;;
9888;SDS011;4983;42.112;24.738;2023-05-20T03:28:03;6.50;;;3.90;;
9888;SDS011;4983;42.112;24.738;2023-05-20T03:30:31;5.27;;;4.00;;
9888;SDS011;4983;42.112;24.738;2023-05-20T03:33:00;7.70;;;3.93;;
9888;SDS011;4983;42.112;24.738;2023-05-20T03:35:27;5.83;;;4.07;;
9888;SDS011;4983;42.112;24.738;2023-05-20T03:37:54;7.20;;;4.20;;
9888;SDS011;4983;42.112;24.738;2023-05-20T03:40:22;5.50;;;4.27;;
9888;SDS011;4983;42.112;24.738;2023-05-20T03:42:49;5.97;;;4.13;;
9888;SDS011;4983;42.112;24.738;2023-05-20T03:45:16;5.60;;;3.70;;
9888;SDS011;4983;42.112;24.738;2023-05-20T03:47:45;10.20;;;4.93;;
9888;SDS011;4983;42.112;24.738;2023-05-20T03:50:11;6.87;;;4.77;;
9888;SDS011;4983;42.112;24.738;2023-05-20T03:52:39;8.67;;;5.00;;
9888;SDS011;4983;42.112;24.738;2023-05-20T03:55:06;9.57;;;4.93;;
9888;SDS011;4983;42.112;24.738;2023-05-20T03:57:34;6.43;;;4.30;;
9888;SDS011;4983;42.112;24.738;2023-05-20T04:00:02;6.83;;;4.60;;
9888;SDS011;4983;42.112;24.738;2023-05-20T04:02:34;8.27;;;4.37;;
9888;SDS011;4983;42.112;24.738;2023-05-20T04:05:00;5.10;;;3.70;;
9888;SDS011;4983;42.112;24.738;2023-05-20T04:07:27;5.07;;;3.60;;
9888;SDS011;4983;42.112;24.738;2023-05-20T04:09:55;6.10;;;4.07;;
9888;SDS011;4983;42.112;24.738;2023-05-20T04:12:23;5.07;;;3.80;;
9888;SDS011;4983;42.112;24.738;2023-05-20T04:14:51;7.63;;;4.50;;
9888;SDS011;4983;42.112;24.738;2023-05-20T04:17:19;5.53;;;3.57;;
9888;SDS011;4983;42.112;24.738;2023-05-20T04:19:46;6.10;;;4.20;;
9888;SDS011;4983;42.112;24.738;2023-05-20T04:22:13;5.27;;;4.17;;
9888;SDS011;4983;42.112;24.738;2023-05-20T04:24:39;5.30;;;4.20;;
9888;SDS011;4983;42.112;24.738;2023-05-20T04:27:06;6.67;;;4.23;;
9888;SDS011;4983;42.112;24.738;2023-05-20T04:29:33;4.93;;;4.30;;
9888;SDS011;4983;42.112;24.738;2023-05-20T04:32:01;6.57;;;4.60;;
9888;SDS011;4983;42.112;24.738;2023-05-20T04:34:28;4.73;;;3.47;;
9888;SDS011;4983;42.112;24.738;2023-05-20T04:36:58;5.60;;;4.00;;
9888;SDS011;4983;42.112;24.738;2023-05-20T04:39:25;9.53;;;4.80;;
9888;SDS011;4983;42.112;24.738;2023-05-20T04:41:52;8.27;;;4.57;;
9888;SDS011;4983;42.112;24.738;2023-05-20T04:44:19;6.20;;;4.10;;
9888;SDS011;4983;42.112;24.738;2023-05-20T04:46:47;9.23;;;5.53;;
9888;SDS011;4983;42.112;24.738;2023-05-20T04:49:15;6.00;;;4.37;;
9888;SDS011;4983;42.112;24.738;2023-05-20T04:51:42;4.10;;;3.30;;
9888;SDS011;4983;42.112;24.738;2023-05-20T04:54:09;6.37;;;4.73;;
9888;SDS011;4983;42.112;24.738;2023-05-20T04:56:35;7.93;;;4.30;;
9888;SDS011;4983;42.112;24.738;2023-05-20T04:59:03;8.13;;;4.33;;
9888;SDS011;4983;42.112;24.738;2023-05-20T05:01:29;11.53;;;4.30;;
9888;SDS011;4983;42.112;24.738;2023-05-20T05:03:56;7.07;;;4.43;;
9888;SDS011;4983;42.112;24.738;2023-05-20T05:06:24;6.13;;;4.27;;
9888;SDS011;4983;42.112;24.738;2023-05-20T05:08:51;7.10;;;4.60;;
9888;SDS011;4983;42.112;24.738;2023-05-20T05:11:17;4.97;;;3.90;;
9888;SDS011;4983;42.112;24.738;2023-05-20T05:13:44;11.70;;;4.70;;
9888;SDS011;4983;42.112;24.738;2023-05-20T05:16:10;7.33;;;4.80;;
9888;SDS011;4983;42.112;24.738;2023-05-20T05:18:37;6.47;;;4.30;;
9888;SDS011;4983;42.112;24.738;2023-05-20T05:21:04;6.47;;;4.40;;
9888;SDS011;4983;42.112;24.738;2023-05-20T05:23:32;5.37;;;4.17;;
9888;SDS011;4983;42.112;24.738;2023-05-20T05:25:59;5.43;;;4.30;;
9888;SDS011;4983;42.112;24.738;2023-05-20T05:28:26;6.27;;;4.47;;
9888;SDS011;4983;42.112;24.738;2023-05-20T05:30:52;7.07;;;4.50;;
9888;SDS011;4983;42.112;24.738;2023-05-20T05:33:19;6.67;;;4.30;;
9888;SDS011;4983;42.112;24.738;2023-05-20T05:35:46;5.93;;;4.30;;
9888;SDS011;4983;42.112;24.738;2023-05-20T05:38:12;6.00;;;4.10;;
9888;SDS011;4983;42.112;24.738;2023-05-20T05:40:40;5.77;;;4.33;;
9888;SDS011;4983;42.112;24.738;2023-05-20T05:43:07;5.00;;;4.23;;
9888;SDS011;4983;42.112;24.738;2023-05-20T05:45:34;8.23;;;4.43;;
9888;SDS011;4983;42.112;24.738;2023-05-20T05:48:01;9.67;;;5.10;;
9888;SDS011;4983;42.112;24.738;2023-05-20T05:50:27;5.00;;;4.20;;
9888;SDS011;4983;42.112;24.738;2023-05-20T05:52:54;7.80;;;5.13;;
9888;SDS011;4983;42.112;24.738;2023-05-20T05:55:21;5.30;;;4.10;;
9888;SDS011;4983;42.112;24.738;2023-05-20T05:57:50;8.27;;;4.83;;
9888;SDS011;4983;42.112;24.738;2023-05-20T06:00:17;5.20;;;3.87;;
9888;SDS011;4983;42.112;24.738;2023-05-20T06:02:43;8.97;;;4.70;;
9888;SDS011;4983;42.112;24.738;2023-05-20T06:05:10;5.40;;;4.30;;
9888;SDS011;4983;42.112;24.738;2023-05-20T06:07:37;5.27;;;4.07;;
9888;SDS011;4983;42.112;24.738;2023-05-20T06:10:04;5.20;;;4.07;;
9888;SDS011;4983;42.112;24.738;2023-05-20T06:12:31;8.50;;;4.40;;
9888;SDS011;4983;42.112;24.738;2023-05-20T06:14:59;5.07;;;3.87;;
9888;SDS011;4983;42.112;24.738;2023-05-20T06:17:26;5.37;;;3.87;;
9888;SDS011;4983;42.112;24.738;2023-05-20T06:19:52;6.57;;;4.20;;
9888;SDS011;4983;42.112;24.738;2023-05-20T06:22:19;6.10;;;4.10;;
9888;SDS011;4983;42.112;24.738;2023-05-20T06:24:46;8.87;;;4.43;;
9888;SDS011;4983;42.112;24.738;2023-05-20T06:27:12;5.93;;;4.20;;
9888;SDS011;4983;42.112;24.738;2023-05-20T06:29:39;5.63;;;4.23;;
9888;SDS011;4983;42.112;24.738;2023-05-20T06:32:07;5.73;;;4.10;;
9888;SDS011;4983;42.112;24.738;2023-05-20T06:34:34;6.03;;;4.00;;
9888;SDS011;4983;42.112;24.738;2023-05-20T06:37:00;5.50;;;4.00;;
9888;SDS011;4983;42.112;24.738;2023-05-20T06:39:27;4.57;;;3.60;;
9888;SDS011;4983;42.112;24.738;2023-05-20T06:41:54;9.43;;;4.23;;
9888;SDS011;4983;42.112;24.738;2023-05-20T06:44:20;4.93;;;3.90;;
9888;SDS011;4983;42.112;24.738;2023-05-20T06:46:47;4.30;;;3.60;;
9888;SDS011;4983;42.112;24.738;2023-05-20T06:49:15;4.43;;;3.60;;
9888;SDS011;4983;42.112;24.738;2023-05-20T06:51:41;4.97;;;3.77;;
9888;SDS011;4983;42.112;24.738;2023-05-20T06:54:09;4.87;;;3.63;;
9888;SDS011;4983;42.112;24.738;2023-05-20T06:56:36;4.80;;;3.20;;
9888;SDS011;4983;42.112;24.738;2023-05-20T06:59:03;3.97;;;3.50;;
9888;SDS011;4983;42.112;24.738;2023-05-20T07:01:30;4.63;;;3.50;;
9888;SDS011;4983;42.112;24.738;2023-05-20T07:03:57;7.27;;;4.23;;
9888;SDS011;4983;42.112;24.738;2023-05-20T07:06:25;4.77;;;3.50;;
9888;SDS011;4983;42.112;24.738;2023-05-20T07:08:52;4.40;;;3.70;;
9888;SDS011;4983;42.112;24.738;2023-05-20T07:11:18;4.23;;;3.30;;
9888;SDS011;4983;42.112;24.738;2023-05-20T07:13:45;4.13;;;3.20;;
9888;SDS011;4983;42.112;24.738;2023-05-20T07:16:12;5.87;;;3.27;;
9888;SDS011;4983;42.112;24.738;2023-05-20T07:18:39;4.87;;;3.50;;
9888;SDS011;4983;42.112;24.738;2023-05-20T07:21:05;4.30;;;3.33;;
9888;SDS011;4983;42.112;24.738;2023-05-20T07:23:33;6.30;;;3.57;;
9888;SDS011;4983;42.112;24.738;2023-05-20T07:26:00;5.03;;;3.60;;
9888;SDS011;4983;42.112;24.738;2023-05-20T07:28:27;4.73;;;3.50;;
9888;SDS011;4983;42.112;24.738;2023-05-20T07:30:54;3.33;;;3.03;;
9888;SDS011;4983;42.112;24.738;2023-05-20T07:33:22;5.00;;;3.53;;
9888;SDS011;4983;42.112;24.738;2023-05-20T07:35:48;3.50;;;3.20;;
9888;SDS011;4983;42.112;24.738;2023-05-20T07:38:15;5.53;;;3.90;;
9888;SDS011;4983;42.112;24.738;2023-05-20T07:40:43;4.90;;;3.90;;
9888;SDS011;4983;42.112;24.738;2023-05-20T07:43:11;3.90;;;3.50;;
9888;SDS011;4983;42.112;24.738;2023-05-20T07:45:38;3.93;;;3.33;;
9888;SDS011;4983;42.112;24.738;2023-05-20T07:48:04;5.83;;;3.80;;
9888;SDS011;4983;42.112;24.738;2023-05-20T07:50:34;3.97;;;3.57;;
9888;SDS011;4983;42.112;24.738;2023-05-20T07:53:00;7.27;;;3.83;;
9888;SDS011;4983;42.112;24.738;2023-05-20T07:55:27;6.07;;;3.83;;
9888;SDS011;4983;42.112;24.738;2023-05-20T07:57:55;4.00;;;3.40;;
9888;SDS011;4983;42.112;24.738;2023-05-20T08:00:22;6.00;;;3.43;;
9888;SDS011;4983;42.112;24.738;2023-05-20T08:02:49;5.47;;;3.40;;
9888;SDS011;4983;42.112;24.738;2023-05-20T08:05:16;3.77;;;3.20;;
9888;SDS011;4983;42.112;24.738;2023-05-20T08:07:43;4.47;;;3.50;;
9888;SDS011;4983;42.112;24.738;2023-05-20T08:10:10;5.00;;;3.63;;
9888;SDS011;4983;42.112;24.738;2023-05-20T08:12:36;3.70;;;3.40;;
9888;SDS011;4983;42.112;24.738;2023-05-20T08:15:05;5.17;;;3.30;;
9888;SDS011;4983;42.112;24.738;2023-05-20T08:17:32;3.77;;;2.73;;
9888;SDS011;4983;42.112;24.738;2023-05-20T08:20:00;3.80;;;3.13;;
9888;SDS011;4983;42.112;24.738;2023-05-20T08:22:27;3.63;;;3.00;;
9888;SDS011;4983;42.112;24.738;2023-05-20T08:24:53;3.80;;;3.30;;
9888;SDS011;4983;42.112;24.738;2023-05-20T08:27:20;4.97;;;3.27;;
9888;SDS011;4983;42.112;24.738;2023-05-20T08:29:47;4.33;;;3.50;;
9888;SDS011;4983;42.112;24.738;2023-05-20T08:32:15;3.80;;;3.30;;
9888;SDS011;4983;42.112;24.738;2023-05-20T08:34:42;3.80;;;3.20;;
9888;SDS011;4983;42.112;24.738;2023-05-20T08:37:08;4.87;;;3.40;;
9888;SDS011;4983;42.112;24.738;2023-05-20T08:39:35;5.20;;;3.20;;
9888;SDS011;4983;42.112;24.738;2023-05-20T08:42:01;3.97;;;3.33;;
9888;SDS011;4983;42.112;24.738;2023-05-20T08:44:31;3.83;;;3.43;;
9888;SDS011;4983;42.112;24.738;2023-05-20T08:46:58;5.03;;;3.40;;
9888;SDS011;4983;42.112;24.738;2023-05-20T08:49:26;5.23;;;3.20;;
9888;SDS011;4983;42.112;24.738;2023-05-20T08:51:53;3.20;;;2.90;;
9888;SDS011;4983;42.112;24.738;2023-05-20T08:54:20;5.10;;;3.33;;
9888;SDS011;4983;42.112;24.738;2023-05-20T08:56:48;4.37;;;3.53;;
9888;SDS011;4983;42.112;24.738;2023-05-20T08:59:14;6.53;;;3.40;;
9888;SDS011;4983;42.112;24.738;2023-05-20T09:01:43;5.83;;;3.20;;
9888;SDS011;4983;42.112;24.738;2023-05-20T09:04:09;4.77;;;3.33;;
9888;SDS011;4983;42.112;24.738;2023-05-20T09:06:44;4.80;;;3.30;;
9888;SDS011;4983;42.112;24.738;2023-05-20T09:09:11;5.27;;;3.10;;
9888;SDS011;4983;42.112;24.738;2023-05-20T09:11:37;3.63;;;3.00;;
9888;SDS011;4983;42.112;24.738;2023-05-20T09:14:04;3.87;;;2.90;;
9888;SDS011;4983;42.112;24.738;2023-05-20T09:16:31;3.27;;;2.67;;
9888;SDS011;4983;42.112;24.738;2023-05-20T09:18:58;5.73;;;3.40;;
9888;SDS011;4983;42.112;24.738;2023-05-20T09:21:26;3.60;;;2.97;;
9888;SDS011;4983;42.112;24.738;2023-05-20T09:23:54;7.40;;;3.40;;
9888;SDS011;4983;42.112;24.738;2023-05-20T09:26:25;6.83;;;3.43;;
9888;SDS011;4983;42.112;24.738;2023-05-20T09:28:52;4.00;;;3.23;;
9888;SDS011;4983;42.112;24.738;2023-05-20T09:31:18;8.23;;;3.97;;
9888;SDS011;4983;42.112;24.738;2023-05-20T09:33:45;3.50;;;3.20;;
9888;SDS011;4983;42.112;24.738;2023-05-20T09:36:14;3.77;;;3.07;;
9888;SDS011;4983;42.112;24.738;2023-05-20T09:38:41;5.87;;;3.53;;
9888;SDS011;4983;42.112;24.738;2023-05-20T09:41:10;7.20;;;3.17;;
9888;SDS011;4983;42.112;24.738;2023-05-20T09:43:37;6.10;;;3.70;;
9888;SDS011;4983;42.112;24.738;2023-05-20T09:46:04;3.60;;;3.13;;
9888;SDS011;4983;42.112;24.738;2023-05-20T09:48:31;3.47;;;2.67;;
9888;SDS011;4983;42.112;24.738;2023-05-20T09:50:58;3.90;;;2.87;;
9888;SDS011;4983;42.112;24.738;2023-05-20T09:53:26;4.33;;;3.40;;
9888;SDS011;4983;42.112;24.738;2023-05-20T09:55:53;8.00;;;3.47;;
9888;SDS011;4983;42.112;24.738;2023-05-20T09:58:21;3.47;;;3.10;;
9888;SDS011;4983;42.112;24.738;2023-05-20T10:00:49;3.67;;;3.20;;
9888;SDS011;4983;42.112;24.738;2023-05-20T10:03:16;3.83;;;3.10;;
9888;SDS011;4983;42.112;24.738;2023-05-20T10:05:44;3.70;;;3.00;;
9888;SDS011;4983;42.112;24.738;2023-05-20T10:08:21;3.67;;;3.10;;
9888;SDS011;4983;42.112;24.738;2023-05-20T10:10:52;3.40;;;2.80;;
9888;SDS011;4983;42.112;24.738;2023-05-20T10:13:27;7.47;;;3.27;;
9888;SDS011;4983;42.112;24.738;2023-05-20T10:15:58;4.07;;;3.17;;
9888;SDS011;4983;42.112;24.738;2023-05-20T10:18:32;4.27;;;3.03;;
9888;SDS011;4983;42.112;24.738;2023-05-20T10:21:02;8.83;;;3.20;;
9888;SDS011;4983;42.112;24.738;2023-05-20T10:23:29;4.57;;;3.10;;
9888;SDS011;4983;42.112;24.738;2023-05-20T10:25:56;6.97;;;3.80;;
9888;SDS011;4983;42.112;24.738;2023-05-20T10:28:31;3.93;;;3.10;;
9888;SDS011;4983;42.112;24.738;2023-05-20T10:30:58;3.70;;;3.30;;
9888;SDS011;4983;42.112;24.738;2023-05-20T10:33:25;6.43;;;3.43;;
9888;SDS011;4983;42.112;24.738;2023-05-20T10:35:53;5.00;;;3.13;;
9888;SDS011;4983;42.112;24.738;2023-05-20T10:38:20;3.50;;;3.20;;
9888;SDS011;4983;42.112;24.738;2023-05-20T10:40:48;5.33;;;3.07;;
9888;SDS011;4983;42.112;24.738;2023-05-20T10:43:15;5.47;;;3.30;;
9888;SDS011;4983;42.112;24.738;2023-05-20T10:45:47;5.00;;;3.10;;
9888;SDS011;4983;42.112;24.738;2023-05-20T10:48:24;3.20;;;2.90;;
9888;SDS011;4983;42.112;24.738;2023-05-20T10:50:53;4.07;;;3.30;;
9888;SDS011;4983;42.112;24.738;2023-05-20T10:53:21;3.40;;;3.00;;
9888;SDS011;4983;42.112;24.738;2023-05-20T10:55:49;3.97;;;2.87;;
9888;SDS011;4983;42.112;24.738;2023-05-20T10:58:18;3.80;;;3.20;;
9888;SDS011;4983;42.112;24.738;2023-05-20T11:00:44;4.57;;;3.37;;
9888;SDS011;4983;42.112;24.738;2023-05-20T11:03:15;3.97;;;3.17;;
9888;SDS011;4983;42.112;24.738;2023-05-20T11:05:44;3.13;;;2.80;;
9888;SDS011;4983;42.112;24.738;2023-05-20T11:08:13;3.90;;;3.30;;
9888;SDS011;4983;42.112;24.738;2023-05-20T11:10:41;5.67;;;3.33;;
9888;SDS011;4983;42.112;24.738;2023-05-20T11:13:11;3.63;;;3.00;;
9888;SDS011;4983;42.112;24.738;2023-05-20T11:15:37;4.10;;;3.17;;
9888;SDS011;4983;42.112;24.738;2023-05-20T11:18:04;4.60;;;3.00;;
9888;SDS011;4983;42.112;24.738;2023-05-20T11:20:37;4.43;;;2.93;;
9888;SDS011;4983;42.112;24.738;2023-05-20T11:23:04;4.37;;;3.10;;
9888;SDS011;4983;42.112;24.738;2023-05-20T11:25:33;3.40;;;2.60;;
9888;SDS011;4983;42.112;24.738;2023-05-20T11:28:02;3.23;;;2.90;;
9888;SDS011;4983;42.112;24.738;2023-05-20T11:30:29;5.00;;;2.80;;
9888;SDS011;4983;42.112;24.738;2023-05-20T11:32:56;4.23;;;2.90;;
9888;SDS011;4983;42.112;24.738;2023-05-20T11:35:23;3.13;;;2.60;;
9888;SDS011;4983;42.112;24.738;2023-05-20T11:37:55;4.37;;;2.47;;
9888;SDS011;4983;42.112;24.738;2023-05-20T11:40:23;4.10;;;2.97;;
9888;SDS011;4983;42.112;24.738;2023-05-20T11:42:51;2.67;;;2.43;;
9888;SDS011;4983;42.112;24.738;2023-05-20T11:45:19;3.83;;;2.50;;
9888;SDS011;4983;42.112;24.738;2023-05-20T11:47:45;4.80;;;2.90;;
9888;SDS011;4983;42.112;24.738;2023-05-20T11:50:15;5.30;;;2.50;;
9888;SDS011;4983;42.112;24.738;2023-05-20T11:52:44;3.13;;;2.60;;
9888;SDS011;4983;42.112;24.738;2023-05-20T11:55:12;3.53;;;2.60;;
9888;SDS011;4983;42.112;24.738;2023-05-20T11:57:40;4.60;;;2.63;;
9888;SDS011;4983;42.112;24.738;2023-05-20T12:00:07;5.43;;;3.00;;
9888;SDS011;4983;42.112;24.738;2023-05-20T12:02:35;5.80;;;2.83;;
9888;SDS011;4983;42.112;24.738;2023-05-20T12:05:02;5.97;;;2.90;;
9888;SDS011;4983;42.112;24.738;2023-05-20T12:07:29;3.83;;;2.67;;
9888;SDS011;4983;42.112;24.738;2023-05-20T12:09:56;3.93;;;2.70;;
9888;SDS011;4983;42.112;24.738;2023-05-20T12:12:24;3.17;;;2.77;;
9888;SDS011;4983;42.112;24.738;2023-05-20T12:14:50;4.10;;;3.07;;
9888;SDS011;4983;42.112;24.738;2023-05-20T12:17:17;5.33;;;3.10;;
9888;SDS011;4983;42.112;24.738;2023-05-20T12:19:44;4.33;;;2.63;;
9888;SDS011;4983;42.112;24.738;2023-05-20T12:22:10;7.87;;;3.50;;
9888;SDS011;4983;42.112;24.738;2023-05-20T12:24:37;3.20;;;2.77;;
9888;SDS011;4983;42.112;24.738;2023-05-20T12:27:04;11.73;;;4.37;;
9888;SDS011;4983;42.112;24.738;2023-05-20T12:29:33;3.20;;;2.70;;
9888;SDS011;4983;42.112;24.738;2023-05-20T12:31:59;3.33;;;3.00;;
9888;SDS011;4983;42.112;24.738;2023-05-20T12:34:27;4.07;;;3.00;;
9888;SDS011;4983;42.112;24.738;2023-05-20T12:36:55;7.93;;;3.50;;
9888;SDS011;4983;42.112;24.738;2023-05-20T12:39:21;7.43;;;3.13;;
9888;SDS011;4983;42.112;24.738;2023-05-20T12:41:49;4.37;;;2.60;;
9888;SDS011;4983;42.112;24.738;2023-05-20T12:44:15;3.37;;;2.67;;
9888;SDS011;4983;42.112;24.738;2023-05-20T12:46:43;2.80;;;2.50;;
9888;SDS011;4983;42.112;24.738;2023-05-20T12:49:10;4.47;;;2.70;;
9888;SDS011;4983;42.112;24.738;2023-05-20T12:51:37;6.90;;;4.90;;
9888;SDS011;4983;42.112;24.738;2023-05-20T12:54:04;8.13;;;5.30;;
9888;SDS011;4983;42.112;24.738;2023-05-20T12:56:31;6.53;;;2.73;;
9888;SDS011;4983;42.112;24.738;2023-05-20T12:58:57;3.90;;;3.33;;
9888;SDS011;4983;42.112;24.738;2023-05-20T13:01:24;5.93;;;4.87;;
9888;SDS011;4983;42.112;24.738;2023-05-20T13:03:52;3.63;;;2.97;;
9888;SDS011;4983;42.112;24.738;2023-05-20T13:06:19;2.70;;;2.50;;
9888;SDS011;4983;42.112;24.738;2023-05-20T13:08:46;5.07;;;3.00;;
9888;SDS011;4983;42.112;24.738;2023-05-20T13:11:12;3.73;;;2.80;;
9888;SDS011;4983;42.112;24.738;2023-05-20T13:13:39;3.80;;;2.80;;
9888;SDS011;4983;42.112;24.738;2023-05-20T13:16:06;3.73;;;3.17;;
9888;SDS011;4983;42.112;24.738;2023-05-20T13:18:33;9.27;;;4.60;;
9888;SDS011;4983;42.112;24.738;2023-05-20T13:21:01;3.60;;;2.73;;
9888;SDS011;4983;42.112;24.738;2023-05-20T13:23:28;5.83;;;3.70;;
9888;SDS011;4983;42.112;24.738;2023-05-20T13:25:55;8.17;;;2.80;;
9888;SDS011;4983;42.112;24.738;2023-05-20T13:28:21;7.20;;;2.90;;
9888;SDS011;4983;42.112;24.738;2023-05-20T13:30:48;2.47;;;2.27;;
9888;SDS011;4983;42.112;24.738;2023-05-20T13:33:15;4.53;;;2.73;;
9888;SDS011;4983;42.112;24.738;2023-05-20T13:35:42;6.03;;;3.03;;
9888;SDS011;4983;42.112;24.738;2023-05-20T13:38:10;3.30;;;2.43;;
9888;SDS011;4983;42.112;24.738;2023-05-20T13:40:37;4.50;;;2.80;;
9888;SDS011;4983;42.112;24.738;2023-05-20T13:43:04;3.93;;;2.60;;
9888;SDS011;4983;42.112;24.738;2023-05-20T13:45:30;5.27;;;3.00;;
9888;SDS011;4983;42.112;24.738;2023-05-20T13:47:57;4.63;;;2.90;;
9888;SDS011;4983;42.112;24.738;2023-05-20T13:50:24;3.97;;;2.63;;
9888;SDS011;4983;42.112;24.738;2023-05-20T13:52:51;4.67;;;3.00;;
9888;SDS011;4983;42.112;24.738;2023-05-20T13:55:19;9.03;;;3.00;;
9888;SDS011;4983;42.112;24.738;2023-05-20T13:57:46;3.90;;;2.47;;
9888;SDS011;4983;42.112;24.738;2023-05-20T14:00:13;4.20;;;2.83;;
9888;SDS011;4983;42.112;24.738;2023-05-20T14:02:40;5.13;;;3.13;;
9888;SDS011;4983;42.112;24.738;2023-05-20T14:05:07;3.40;;;2.60;;
9888;SDS011;4983;42.112;24.738;2023-05-20T14:07:33;7.13;;;3.33;;
9888;SDS011;4983;42.112;24.738;2023-05-20T14:10:00;2.77;;;2.57;;
9888;SDS011;4983;42.112;24.738;2023-05-20T14:12:30;6.83;;;2.73;;
9888;SDS011;4983;42.112;24.738;2023-05-20T14:14:57;5.43;;;2.70;;
9888;SDS011;4983;42.112;24.738;2023-05-20T14:17:24;3.47;;;2.20;;
9888;SDS011;4983;42.112;24.738;2023-05-20T14:19:51;2.87;;;2.43;;
9888;SDS011;4983;42.112;24.738;2023-05-20T14:22:17;4.37;;;2.50;;
9888;SDS011;4983;42.112;24.738;2023-05-20T14:24:44;4.63;;;2.93;;
9888;SDS011;4983;42.112;24.738;2023-05-20T14:27:11;4.40;;;2.20;;
9888;SDS011;4983;42.112;24.738;2023-05-20T14:29:39;2.43;;;2.10;;
9888;SDS011;4983;42.112;24.738;2023-05-20T14:32:06;2.67;;;2.33;;
9888;SDS011;4983;42.112;24.738;2023-05-20T14:34:33;7.40;;;3.23;;
9888;SDS011;4983;42.112;24.738;2023-05-20T14:36:59;3.43;;;2.50;;
9888;SDS011;4983;42.112;24.738;2023-05-20T14:39:31;3.40;;;2.30;;
9888;SDS011;4983;42.112;24.738;2023-05-20T14:41:59;2.87;;;2.30;;
9888;SDS011;4983;42.112;24.738;2023-05-20T14:44:27;4.10;;;2.47;;
9888;SDS011;4983;42.112;24.738;2023-05-20T14:46:56;3.00;;;2.10;;
9888;SDS011;4983;42.112;24.738;2023-05-20T14:49:23;3.77;;;2.07;;
9888;SDS011;4983;42.112;24.738;2023-05-20T14:51:52;2.63;;;2.17;;
9888;SDS011;4983;42.112;24.738;2023-05-20T14:54:18;4.03;;;2.60;;
9888;SDS011;4983;42.112;24.738;2023-05-20T14:56:49;2.17;;;1.97;;
9888;SDS011;4983;42.112;24.738;2023-05-20T14:59:16;9.40;;;3.00;;
9888;SDS011;4983;42.112;24.738;2023-05-20T15:01:43;4.40;;;3.00;;